createdAt,value
2022-09-04T00:00:33.656Z,4.53
2022-09-04T00:03:47.297Z,3.78
2022-09-04T00:07:24.885Z,3.00
2022-09-04T00:10:36.242Z,5.65
2022-09-04T00:13:57.551Z,4.10
2022-09-04T00:17:04.077Z,3.92
2022-09-04T00:20:18.756Z,3.75
2022-09-04T00:23:37.174Z,5.07
2022-09-04T00:27:09.380Z,4.10
2022-09-04T00:30:21.482Z,4.10
2022-09-04T00:33:45.522Z,5.05
2022-09-04T00:36:51.847Z,4.25
2022-09-04T00:40:02.595Z,5.83
2022-09-04T00:43:14.308Z,4.45
2022-09-04T00:46:37.918Z,3.85
2022-09-04T00:50:15.865Z,5.75
2022-09-04T00:53:56.023Z,3.53
2022-09-04T00:57:06.634Z,4.53
2022-09-04T01:00:21.284Z,4.53
2022-09-04T01:03:49.452Z,3.87
2022-09-04T01:07:24.096Z,3.75
2022-09-04T01:10:41.127Z,5.30
2022-09-04T01:14:18.108Z,3.50
2022-09-04T01:17:45.434Z,4.05
2022-09-04T01:21:21.970Z,4.22
2022-09-04T01:24:54.069Z,4.32
2022-09-04T01:28:07.788Z,4.25
2022-09-04T01:31:28.742Z,4.30
2022-09-04T01:38:20.411Z,4.22
2022-09-04T01:41:25.700Z,3.60
2022-09-04T01:44:30.161Z,4.82
2022-09-04T01:47:40.957Z,3.87
2022-09-04T01:50:47.512Z,4.43
2022-09-04T01:54:20.417Z,3.80
2022-09-04T01:57:41.598Z,4.32
2022-09-04T02:00:53.686Z,6.03
2022-09-04T02:04:21.727Z,4.27
2022-09-04T02:07:47.036Z,5.65
2022-09-04T02:11:01.415Z,6.62
2022-09-04T02:14:36.369Z,4.82
2022-09-04T02:17:51.439Z,4.10
2022-09-04T02:21:01.925Z,4.97
2022-09-04T02:24:50.464Z,4.07
2022-09-04T02:28:11.449Z,5.65
2022-09-04T02:31:38.730Z,5.68
2022-09-04T02:34:55.637Z,4.47
2022-09-04T02:38:08.579Z,4.63
2022-09-04T02:41:35.926Z,5.97
2022-09-04T02:45:15.918Z,4.70
2022-09-04T02:48:35.198Z,4.65
2022-09-04T02:52:02.056Z,6.47
2022-09-04T02:55:14.114Z,6.07
2022-09-04T02:58:26.034Z,5.37
2022-09-04T03:01:40.760Z,5.68
2022-09-04T03:04:50.713Z,4.90
2022-09-04T03:08:00.671Z,7.32
2022-09-04T03:11:09.594Z,6.43
2022-09-04T03:14:38.669Z,5.47
2022-09-04T03:17:58.923Z,4.18
2022-09-04T03:21:08.394Z,6.07
2022-09-04T03:24:17.811Z,4.70
2022-09-04T03:27:20.771Z,8.47
2022-09-04T03:30:24.040Z,5.35
2022-09-04T03:33:36.761Z,4.40
2022-09-04T03:37:01.162Z,5.90
2022-09-04T03:40:25.089Z,6.05
2022-09-04T03:43:46.378Z,4.97
2022-09-04T03:47:16.055Z,5.93
2022-09-04T03:50:27.861Z,7.53
2022-09-04T03:53:39.082Z,5.43
2022-09-04T03:56:56.325Z,6.05
2022-09-04T04:00:15.382Z,7.17
2022-09-04T04:03:37.050Z,5.00
2022-09-04T04:07:16.813Z,5.65
2022-09-04T04:10:22.374Z,6.45
2022-09-04T04:13:41.585Z,6.55
2022-09-04T04:17:22.802Z,5.60
2022-09-04T04:20:46.349Z,4.90
2022-09-04T04:23:56.904Z,6.62
2022-09-04T04:27:41.804Z,5.80
2022-09-04T04:30:50.204Z,7.00
2022-09-04T04:34:15.542Z,6.63
2022-09-04T04:37:30.269Z,5.78
2022-09-04T04:40:45.301Z,7.47
2022-09-04T04:44:07.697Z,5.15
2022-09-04T04:47:27.438Z,5.93
2022-09-04T04:50:40.657Z,5.77
2022-09-04T04:53:49.486Z,5.78
2022-09-04T04:57:09.760Z,6.32
2022-09-04T05:00:22.838Z,6.68
2022-09-04T05:03:36.675Z,5.87
2022-09-04T05:06:53.191Z,7.67
2022-09-04T05:10:08.683Z,6.25
2022-09-04T05:13:33.328Z,7.53
2022-09-04T05:16:55.787Z,5.75
2022-09-04T05:20:34.598Z,7.32
2022-09-04T05:23:46.414Z,7.33
2022-09-04T05:26:57.377Z,6.97
2022-09-04T05:30:39.347Z,7.62
2022-09-04T05:34:09.832Z,5.72
2022-09-04T05:37:34.573Z,7.37
2022-09-04T05:41:05.564Z,6.83
2022-09-04T05:44:16.706Z,6.10
2022-09-04T05:47:43.411Z,7.12
2022-09-04T05:51:07.865Z,8.05
2022-09-04T05:54:33.211Z,6.15
2022-09-04T05:57:55.286Z,6.03
2022-09-04T06:01:16.082Z,7.00
2022-09-04T06:04:29.583Z,6.22
2022-09-04T06:07:38.381Z,8.05
2022-09-04T06:11:06.755Z,6.70
2022-09-04T06:14:40.410Z,6.70
2022-09-04T06:17:48.753Z,7.35
2022-09-04T06:21:14.429Z,10.27
2022-09-04T06:24:32.400Z,6.53
2022-09-04T06:27:55.981Z,8.07
2022-09-04T06:31:18.660Z,6.40
2022-09-04T06:34:45.140Z,8.73
2022-09-04T06:38:09.864Z,8.32
2022-09-04T06:41:24.647Z,6.70
2022-09-04T06:45:02.946Z,8.10
2022-09-04T06:48:13.612Z,5.50
2022-09-04T06:51:29.146Z,7.15
2022-09-04T06:54:46.556Z,5.90
2022-09-04T06:57:55.866Z,7.65
2022-09-04T07:01:04.384Z,8.50
2022-09-04T07:04:13.465Z,7.50
2022-09-04T07:07:38.817Z,9.80
2022-09-04T07:11:07.713Z,6.15
2022-09-04T07:14:25.128Z,7.07
2022-09-04T07:17:30.571Z,6.55
2022-09-04T07:20:43.598Z,6.97
2022-09-04T07:24:04.311Z,6.50
2022-09-04T07:27:17.948Z,6.50
2022-09-04T07:30:22.763Z,8.45
2022-09-04T07:33:34.992Z,7.00
2022-09-04T07:37:02.615Z,7.53
2022-09-04T07:40:11.519Z,6.97
2022-09-04T07:43:24.546Z,8.18
2022-09-04T07:46:44.691Z,7.30
2022-09-04T07:49:50.598Z,8.20
2022-09-04T07:53:11.202Z,9.50
2022-09-04T07:56:35.185Z,6.65
2022-09-04T07:59:59.585Z,6.28
2022-09-04T08:03:20.573Z,8.13
2022-09-04T08:06:43.103Z,9.13
2022-09-04T08:10:23.069Z,8.60
2022-09-04T08:13:44.378Z,7.53
2022-09-04T08:17:24.553Z,8.00
2022-09-04T08:20:51.448Z,6.50
2022-09-04T08:24:22.953Z,9.25
2022-09-04T08:27:36.312Z,7.83
2022-09-04T08:31:09.929Z,8.02
2022-09-04T08:34:35.779Z,7.93
2022-09-04T08:37:47.198Z,9.95
2022-09-04T08:41:11.666Z,8.57
2022-09-04T08:45:05.879Z,7.77
2022-09-04T08:48:27.042Z,9.30
2022-09-04T08:51:41.374Z,14.55
2022-09-04T08:55:09.535Z,8.05
2022-09-04T08:58:34.447Z,7.97
2022-09-04T09:02:15.045Z,8.00
2022-09-04T09:05:46.172Z,7.28
2022-09-04T09:08:48.768Z,6.90
2022-09-04T09:12:26.649Z,8.00
2022-09-04T09:16:02.259Z,6.57
2022-09-04T09:19:29.585Z,6.57
2022-09-04T09:22:51.112Z,6.37
2022-09-04T09:26:15.251Z,7.87
2022-09-04T09:29:34.965Z,6.15
2022-09-04T09:33:17.381Z,6.15
2022-09-04T09:37:10.962Z,6.43
2022-09-04T09:40:58.825Z,7.05
2022-09-04T09:44:12.177Z,5.20
2022-09-04T09:47:30.253Z,5.37
2022-09-04T09:50:56.308Z,6.37
2022-09-04T09:54:05.032Z,6.20
2022-09-04T09:57:29.680Z,7.07
2022-09-04T10:00:59.049Z,5.60
2022-09-04T10:04:24.753Z,5.95
2022-09-04T10:07:39.387Z,6.15
2022-09-04T10:11:16.614Z,7.00
2022-09-04T10:14:56.917Z,6.25
2022-09-04T10:18:18.488Z,6.18
2022-09-04T10:21:59.037Z,6.40
2022-09-04T10:25:25.377Z,7.00
2022-09-04T10:28:55.680Z,6.17
2022-09-04T10:32:23.250Z,6.22
2022-09-04T10:35:33.014Z,6.70
2022-09-04T10:38:58.589Z,6.30
2022-09-04T10:42:11.674Z,4.57
2022-09-04T10:45:22.181Z,5.37
2022-09-04T10:48:37.019Z,5.45
2022-09-04T10:52:04.969Z,5.40
2022-09-04T10:55:20.050Z,6.62
2022-09-04T10:58:29.081Z,5.05
2022-09-04T11:01:59.437Z,5.90
2022-09-04T11:05:21.266Z,5.45
2022-09-04T11:08:51.904Z,4.97
2022-09-04T11:12:12.880Z,5.10
2022-09-04T11:15:37.142Z,4.50
2022-09-04T11:18:55.783Z,4.77
2022-09-04T11:22:27.426Z,5.93
2022-09-04T11:25:50.321Z,5.53
2022-09-04T11:29:04.543Z,5.00
2022-09-04T11:32:31.936Z,5.20
2022-09-04T11:35:53.368Z,4.93
2022-09-04T11:39:33.929Z,6.57
2022-09-04T11:43:01.380Z,4.28
2022-09-04T11:46:35.951Z,4.45
2022-09-04T11:49:41.413Z,5.93
2022-09-04T11:52:56.650Z,5.47
2022-09-04T11:56:05.015Z,4.10
2022-09-04T11:59:32.655Z,4.95
2022-09-04T12:02:53.497Z,4.78
2022-09-04T12:05:59.427Z,7.03
2022-09-04T12:09:46.897Z,5.33
2022-09-04T12:13:20.750Z,4.82
2022-09-04T12:16:44.578Z,5.80
2022-09-04T12:19:55.126Z,5.75
2022-09-04T12:23:15.833Z,5.82
2022-09-04T12:26:32.434Z,5.70
2022-09-04T12:30:20.040Z,4.70
2022-09-04T12:33:28.829Z,4.80
2022-09-04T12:36:34.591Z,4.75
2022-09-04T12:39:49.163Z,5.07
2022-09-04T12:43:16.502Z,5.63
2022-09-04T12:46:26.265Z,4.95
2022-09-04T12:49:37.885Z,6.60
2022-09-04T12:52:51.131Z,5.03
2022-09-04T12:56:17.029Z,5.03
2022-09-04T12:59:19.693Z,4.90
2022-09-04T13:02:45.046Z,4.53
2022-09-04T13:06:27.223Z,4.43
2022-09-04T13:09:59.725Z,5.37
2022-09-04T13:13:14.647Z,4.50
2022-09-04T13:16:38.396Z,4.30
2022-09-04T13:20:18.934Z,4.93
2022-09-04T13:23:49.326Z,4.78
2022-09-04T13:27:03.664Z,4.85
2022-09-04T13:30:24.346Z,6.18
2022-09-04T13:34:04.798Z,7.27
2022-09-04T13:37:29.488Z,5.07
2022-09-04T13:40:43.161Z,7.03
2022-09-04T13:44:12.943Z,5.18
2022-09-04T13:47:32.619Z,6.00
2022-09-04T13:50:57.339Z,4.63
2022-09-04T13:54:18.421Z,7.37
2022-09-04T13:57:28.054Z,6.00
2022-09-04T14:00:32.776Z,4.93
2022-09-04T14:04:16.775Z,5.62
2022-09-04T14:07:36.124Z,4.47
2022-09-04T14:11:17.142Z,6.05
2022-09-04T14:14:26.074Z,4.78
2022-09-04T14:17:39.182Z,7.55
2022-09-04T14:21:00.934Z,6.20
2022-09-04T14:24:18.092Z,4.30
2022-09-04T14:27:36.650Z,7.55
2022-09-04T14:31:01.026Z,5.80
2022-09-04T14:34:20.904Z,5.82
2022-09-04T14:37:38.820Z,4.85
2022-09-04T14:40:55.494Z,4.50
2022-09-04T14:44:03.783Z,5.43
2022-09-04T14:47:31.720Z,5.72
2022-09-04T14:50:49.008Z,5.22
2022-09-04T14:53:55.901Z,5.35
2022-09-04T14:57:03.547Z,5.17
2022-09-04T15:00:10.112Z,5.32
2022-09-04T15:03:20.450Z,4.37
2022-09-04T15:06:32.409Z,5.55
2022-09-04T15:09:40.011Z,4.87
2022-09-04T15:12:54.378Z,4.53
2022-09-04T15:16:10.985Z,4.82
2022-09-04T15:19:14.133Z,5.80
2022-09-04T15:22:25.910Z,4.85
2022-09-04T15:25:59.127Z,5.43
2022-09-04T15:29:19.236Z,6.07
2022-09-04T15:32:24.799Z,4.62
2022-09-04T15:35:33.466Z,4.93
2022-09-04T15:38:37.449Z,5.57
2022-09-04T15:41:48.464Z,5.43
2022-09-04T15:44:50.954Z,5.30
2022-09-04T15:47:56.746Z,6.87
2022-09-04T15:50:59.030Z,5.12
2022-09-04T15:54:11.781Z,4.72
2022-09-04T15:57:28.033Z,5.50
2022-09-04T16:00:32.112Z,5.67
2022-09-04T16:04:02.242Z,4.72
2022-09-04T16:07:20.538Z,5.40
2022-09-04T16:10:25.761Z,5.07
2022-09-04T16:13:32.893Z,4.75
2022-09-04T16:16:42.434Z,6.97
2022-09-04T16:20:07.663Z,5.22
2022-09-04T16:23:14.705Z,4.68
2022-09-04T16:26:27.213Z,7.07
2022-09-04T16:29:41.486Z,4.47
2022-09-04T16:32:44.709Z,7.13
2022-09-04T16:35:49.250Z,8.18
2022-09-04T16:38:57.436Z,6.30
2022-09-04T16:42:16.087Z,5.25
2022-09-04T16:45:25.557Z,6.32
2022-09-04T16:48:35.239Z,4.77
2022-09-04T16:52:01.362Z,4.47
2022-09-04T16:55:11.500Z,5.47
2022-09-04T16:58:34.771Z,5.97
2022-09-04T17:01:46.260Z,6.22
2022-09-04T17:04:53.083Z,6.03
2022-09-04T17:08:15.095Z,5.78
2022-09-04T17:11:34.334Z,6.35
2022-09-04T17:15:07.945Z,7.78
2022-09-04T17:18:10.536Z,6.62
2022-09-04T17:27:13.104Z,5.67
2022-09-04T17:29:10.111Z,5.15
2022-09-04T17:29:33.748Z,5.53
2022-09-04T17:38:12.223Z,7.47
2022-09-04T17:40:39.214Z,4.97
2022-09-04T17:40:49.123Z,5.40
2022-09-04T17:43:38.270Z,4.75
2022-09-04T17:46:45.224Z,7.90
2022-09-04T17:49:50.016Z,4.50
2022-09-04T17:52:58.821Z,7.07
2022-09-04T17:56:15.812Z,8.10
2022-09-04T17:59:32.009Z,6.28
2022-09-04T18:02:49.976Z,5.97
2022-09-04T18:06:01.361Z,5.40
2022-09-04T18:09:12.640Z,6.45
2022-09-04T18:12:31.318Z,6.53
2022-09-04T18:15:43.011Z,8.05
2022-09-04T18:18:56.081Z,5.45
2022-09-04T18:22:26.425Z,6.80
2022-09-04T18:25:42.501Z,5.68
2022-09-04T18:28:56.550Z,6.13
2022-09-04T18:37:08.298Z,7.30
2022-09-04T18:37:17.346Z,7.10
2022-09-04T18:39:18.841Z,6.82
2022-09-04T18:48:14.177Z,5.80
2022-09-04T18:50:35.748Z,8.03
2022-09-04T18:50:52.096Z,7.00
2022-09-04T18:53:16.158Z,7.53
2022-09-04T18:56:30.811Z,6.22
2022-09-04T18:59:37.124Z,7.18
2022-09-04T19:02:53.081Z,6.70
2022-09-04T19:05:59.874Z,7.50
2022-09-04T19:09:11.053Z,13.90
2022-09-04T19:12:18.099Z,8.20
2022-09-04T19:15:45.531Z,6.62
2022-09-04T19:19:31.517Z,8.13
2022-09-04T19:22:47.782Z,7.40
2022-09-04T19:25:54.928Z,8.43
2022-09-04T19:29:12.177Z,7.53
2022-09-04T19:32:29.686Z,8.80
2022-09-04T19:35:54.714Z,8.97
2022-09-04T19:45:55.308Z,8.43
2022-09-04T19:46:06.137Z,9.40
2022-09-04T19:46:27.933Z,11.57
2022-09-04T19:51:52.330Z,12.07
2022-09-04T19:53:33.144Z,10.63
2022-09-04T19:57:32.736Z,10.82
2022-09-04T20:00:42.366Z,12.55
2022-09-04T20:03:50.585Z,11.65
2022-09-04T20:06:59.252Z,9.82
2022-09-04T20:10:25.005Z,10.43
2022-09-04T20:13:40.179Z,9.43
2022-09-04T20:17:01.875Z,9.30
2022-09-04T20:20:25.801Z,11.60
2022-09-04T20:23:43.692Z,9.52
2022-09-04T20:27:01.427Z,10.60
2022-09-04T20:30:13.286Z,11.82
2022-09-04T20:33:24.477Z,10.15
2022-09-04T20:36:32.680Z,9.90
2022-09-04T20:39:47.828Z,9.32
2022-09-04T20:43:02.595Z,11.80
2022-09-04T20:52:45.271Z,10.32
2022-09-04T20:52:54.894Z,10.35
2022-09-04T20:53:20.180Z,11.25
2022-09-04T20:58:11.320Z,9.70
2022-09-04T21:03:18.899Z,9.83
2022-09-04T21:03:42.945Z,10.00
2022-09-04T21:06:54.686Z,10.88
2022-09-04T21:09:59.679Z,10.07
2022-09-04T21:13:14.248Z,10.45
2022-09-04T21:16:53.539Z,12.63
2022-09-04T21:20:02.123Z,9.80
2022-09-04T21:23:19.748Z,10.05
2022-09-04T21:26:28.608Z,9.63
2022-09-04T21:29:37.967Z,11.80
2022-09-04T21:33:28.244Z,11.50
2022-09-04T21:36:54.813Z,10.82
2022-09-04T21:40:49.542Z,13.00
2022-09-04T21:43:56.164Z,11.38
2022-09-04T21:47:16.856Z,11.88
2022-09-04T21:51:01.379Z,11.00
2022-09-04T21:55:16.030Z,11.40
2022-09-04T22:02:37.644Z,9.57
2022-09-04T22:02:39.332Z,11.88
2022-09-04T22:05:39.428Z,11.27
2022-09-04T22:13:30.343Z,10.80
2022-09-04T22:13:39.854Z,11.65
2022-09-04T22:16:14.663Z,10.82
2022-09-04T22:19:35.958Z,12.23
2022-09-04T22:22:47.498Z,11.48
2022-09-04T22:26:23.654Z,11.17
2022-09-04T22:29:50.285Z,10.77
2022-09-04T22:33:01.881Z,12.75
2022-09-04T22:36:35.320Z,12.65
2022-09-04T22:39:57.922Z,10.70
2022-09-04T22:43:15.053Z,11.90
2022-09-04T22:46:45.384Z,12.40
2022-09-04T22:49:57.213Z,8.95
2022-09-04T22:53:18.974Z,10.43
2022-09-04T22:56:33.727Z,10.57
2022-09-04T23:00:14.298Z,10.33
2022-09-04T23:03:33.167Z,11.48
2022-09-04T23:11:15.540Z,10.80
2022-09-04T23:13:49.424Z,11.23
2022-09-04T23:14:30.925Z,9.57
2022-09-04T23:18:54.408Z,11.20
2022-09-04T23:26:49.805Z,10.63
2022-09-04T23:26:53.270Z,11.52
2022-09-04T23:29:51.318Z,13.60
2022-09-04T23:33:35.382Z,11.95
2022-09-04T23:37:41.465Z,10.73
2022-09-04T23:40:53.616Z,10.48
2022-09-04T23:44:33.436Z,14.43
2022-09-04T23:48:10.167Z,20.00
2022-09-04T23:51:34.604Z,18.23
2022-09-04T23:54:56.162Z,14.70
2022-09-04T23:58:54.938Z,13.27
